Paducah, Texas
Current Conditions -  °F | °C
As of 3:53 PM on Friday 28 Nov 2014 (Local Time) from KCDS Reporting Station
Clear Clear  
Wind Chill: 82°   Ceiling: Unl
Heat Index: 82°   Visibility: 10mi
Dew Point: 26°   Wind: 17mph
Humidity: 13%   Direction: 220°SW
Pressure: 29.86"   Gusts: 25mph
Location:  34.01°N, 100.3°W
Report Text: KCDS 282153Z AUTO 22015G22KT 10SM CLR 28/M03 A2986 RMK AO2 SLP100 T02781033
Loading
Personal Weather Stations






























Interactive Weather Map New forecast layout! Learn more

10-Day Weather Forecast

Advertisements
Track Severe Weather on mobile